Time;durP1;ratioP1;P1;durP2;ratioP2;P2;SDS_P1;SDS_P2;PMS_P1;PMS_P2;Temp;Humidity;BMP_temperature;BMP_pressure;BME280_temperature;BME280_humidity;BME280_pressure;Samples;Min_cycle;Max_cycle;Signal;HPM_P1;HPM_P2
2023/08/26 00:01:59;;;;;;;7.37;3.80;;;20.00;99.90;;;20.97;100.00;97556.22;5072799;28;20472;-77
2023/08/26 00:04:29;;;;;;;15.20;4.70;;;20.00;99.90;;;20.97;100.00;97555.41;5073961;28;20522;-77
2023/08/26 00:06:59;;;;;;;6.03;3.43;;;20.00;99.90;;;20.94;100.00;97550.63;5073020;28;20463;-78
2023/08/26 00:09:29;;;;;;;16.67;4.50;;;20.20;99.90;;;20.96;100.00;97554.63;5071838;28;20456;-77
2023/08/26 00:12:00;;;;;;;8.13;4.50;;;20.10;99.90;;;20.97;100.00;97558.88;5074178;28;20523;-77
2023/08/26 00:14:30;;;;;;;8.37;4.63;;;20.10;99.90;;;20.92;100.00;97560.75;5069764;28;20964;-78
2023/08/26 00:17:00;;;;;;;5.33;3.43;;;20.20;99.90;;;20.90;100.00;97566.31;5072101;28;20468;-77
2023/08/26 00:19:31;;;;;;;5.80;4.07;;;20.00;99.90;;;20.88;100.00;97567.66;5070440;28;20460;-78
2023/08/26 00:22:01;;;;;;;11.03;4.20;;;20.00;99.90;;;20.82;100.00;97561.53;5072184;28;20456;-78
2023/08/26 00:24:30;;;;;;;9.20;3.43;;;20.10;99.90;;;20.79;100.00;97570.03;5072132;28;20477;-78
2023/08/26 00:27:01;;;;;;;7.00;3.40;;;20.10;99.90;;;20.81;100.00;97569.78;5069179;28;20462;-78
2023/08/26 00:29:32;;;;;;;9.37;3.90;;;20.00;99.90;;;20.83;100.00;97571.09;5071901;28;20459;-78
2023/08/26 00:32:01;;;;;;;11.87;4.30;;;20.00;99.90;;;20.79;100.00;97574.56;5075647;28;20486;-78
2023/08/26 00:34:31;;;;;;;10.10;3.00;;;20.00;99.90;;;20.72;100.00;97576.69;5068857;28;21046;-77
2023/08/26 00:37:02;;;;;;;12.50;4.23;;;19.90;99.90;;;20.64;100.00;97578.00;5070688;28;20464;-77
2023/08/26 00:39:32;;;;;;;4.40;3.03;;;19.90;99.90;;;20.66;100.00;97569.72;5072748;28;20505;-77
2023/08/26 00:42:05;;;;;;;5.33;3.47;;;19.80;99.90;;;20.67;100.00;97574.00;5072214;28;20914;-77
2023/08/26 00:44:35;;;;;;;10.50;3.67;;;19.80;99.90;;;20.62;100.00;97579.31;5072481;28;21074;-77
2023/08/26 00:47:06;;;;;;;6.33;3.40;;;19.80;99.90;;;20.50;100.00;97567.06;5073999;28;20523;-77
2023/08/26 00:49:36;;;;;;;5.67;3.20;;;19.70;99.90;;;20.56;100.00;97575.84;5071206;28;20612;-77
2023/08/26 00:52:08;;;;;;;7.90;4.00;;;19.70;99.90;;;20.53;100.00;97571.84;5071341;28;20552;-78
2023/08/26 00:54:39;;;;;;;8.70;3.60;;;19.60;99.90;;;20.52;100.00;97570.25;5075611;28;20462;-77
2023/08/26 00:57:10;;;;;;;8.77;3.83;;;19.60;99.90;;;20.50;100.00;97574.22;5077221;28;20490;-78
2023/08/26 00:59:40;;;;;;;12.00;3.53;;;19.50;99.90;;;20.46;100.00;97575.81;5073224;28;21001;-78
2023/08/26 01:02:10;;;;;;;8.37;3.10;;;19.50;99.90;;;20.47;100.00;97582.72;5072432;28;20972;-77
2023/08/26 01:04:40;;;;;;;3.80;3.03;;;19.50;99.90;;;20.41;100.00;97589.88;5076049;28;21273;-78
2023/08/26 01:07:10;;;;;;;11.40;3.20;;;19.60;99.90;;;20.42;100.00;97595.97;5074251;28;20463;-77
2023/08/26 01:09:39;;;;;;;6.50;3.23;;;19.50;99.90;;;20.39;100.00;97594.66;5072679;28;21035;-77
2023/08/26 01:12:23;;;;;;;6.70;3.07;;;19.50;99.90;;;20.32;100.00;97593.28;5073730;28;20574;-77
2023/08/26 01:15:06;;;;;;;9.53;3.63;;;19.50;99.90;;;20.31;100.00;97599.66;5071678;28;20478;-78
2023/08/26 01:17:37;;;;;;;8.27;3.10;;;19.40;99.90;;;20.30;100.00;97598.09;5077109;28;20558;-77
2023/08/26 01:20:10;;;;;;;7.63;3.20;;;19.50;99.90;;;20.29;100.00;97586.66;5072386;28;20476;-78
2023/08/26 01:22:45;;;;;;;8.40;2.87;;;19.40;99.90;;;20.22;100.00;97578.09;5072504;28;21491;-77
2023/08/26 01:25:18;;;;;;;9.20;3.73;;;19.50;99.90;;;20.22;100.00;97585.25;5074291;28;20455;-78
2023/08/26 01:27:48;;;;;;;7.07;3.23;;;19.30;99.90;;;20.19;100.00;97577.81;5073867;28;20455;-78
2023/08/26 01:30:19;;;;;;;10.40;3.67;;;19.30;99.90;;;20.21;100.00;97576.50;5072925;28;20483;-78
2023/08/26 01:32:59;;;;;;;5.63;3.60;;;19.30;99.90;;;20.19;100.00;97569.84;5075439;28;20832;-78
2023/08/26 01:35:37;;;;;;;14.03;3.90;;;19.30;99.90;;;20.19;100.00;97568.00;5074258;28;20460;-78
2023/08/26 01:38:09;;;;;;;10.00;3.40;;;19.20;99.90;;;20.15;100.00;97574.88;5074057;28;20472;-77
2023/08/26 01:40:48;;;;;;;5.13;2.80;;;19.10;99.90;;;20.08;100.00;97585.75;5077218;28;20462;-77
2023/08/26 01:43:19;;;;;;;9.43;3.10;;;19.10;99.90;;;20.05;100.00;97599.53;5074580;28;20471;-77
2023/08/26 01:45:49;;;;;;;5.73;3.70;;;19.10;99.90;;;19.79;100.00;97602.28;5074587;28;20830;-78
2023/08/26 01:48:19;;;;;;;12.10;3.20;;;19.10;99.90;;;19.70;100.00;97617.09;5075362;28;20459;-77
2023/08/26 01:50:48;;;;;;;5.87;3.30;;;19.00;99.90;;;19.61;100.00;97624.72;5077487;28;20459;-78
2023/08/26 01:53:18;;;;;;;7.90;3.23;;;19.10;99.90;;;19.63;100.00;97621.84;5077652;28;20511;-78
2023/08/26 01:55:49;;;;;;;10.27;2.87;;;19.10;99.90;;;19.55;100.00;97586.75;5076177;28;20495;-77
2023/08/26 01:58:20;;;;;;;5.43;2.50;;;19.00;99.90;;;19.49;100.00;97602.91;5076445;28;20451;-78
2023/08/26 02:00:51;;;;;;;6.50;2.93;;;18.90;99.90;;;19.49;100.00;97613.50;5078941;28;20443;-78
2023/08/26 02:03:20;;;;;;;7.03;3.13;;;19.00;99.90;;;19.42;100.00;97620.88;5077321;28;20460;-77
2023/08/26 02:05:51;;;;;;;8.00;2.77;;;19.00;99.90;;;19.43;100.00;97631.25;5078047;28;20459;-78
2023/08/26 02:08:21;;;;;;;11.60;2.87;;;18.90;99.90;;;19.39;100.00;97635.44;5076441;28;20460;-77
2023/08/26 02:10:56;;;;;;;6.63;3.10;;;18.90;99.90;;;19.32;100.00;97636.69;5079366;28;20977;-77
2023/08/26 02:13:26;;;;;;;11.40;3.03;;;18.90;99.90;;;19.28;100.00;97647.00;5075517;28;20582;-77
2023/08/26 02:15:58;;;;;;;5.30;2.83;;;18.90;99.90;;;19.28;100.00;97657.59;5076476;28;20458;-77
2023/08/26 02:18:28;;;;;;;7.23;2.87;;;18.70;99.90;;;19.32;100.00;97650.75;5076449;28;20511;-78
2023/08/26 02:20:58;;;;;;;12.20;2.77;;;18.50;99.90;;;19.33;100.00;97656.88;5078908;28;20483;-77
2023/08/26 02:23:28;;;;;;;12.87;3.73;;;18.50;99.90;;;19.32;100.00;97666.66;5076056;28;20824;-78
2023/08/26 02:26:02;;;;;;;6.57;3.43;;;18.50;99.90;;;19.29;100.00;97677.78;5077038;28;20470;-78
2023/08/26 02:28:34;;;;;;;5.27;2.73;;;18.50;99.90;;;19.30;100.00;97673.28;5077320;28;20836;-77
2023/08/26 02:31:03;;;;;;;6.90;2.70;;;18.50;99.90;;;19.27;100.00;97674.56;5075111;28;20463;-78
2023/08/26 02:33:33;;;;;;;5.30;2.67;;;18.40;99.90;;;19.25;100.00;97671.38;5076412;28;20488;-78
2023/08/26 02:36:05;;;;;;;11.03;2.57;;;18.50;99.90;;;19.29;100.00;97669.03;5079562;28;20459;-78
2023/08/26 02:38:35;;;;;;;14.40;3.50;;;18.40;99.90;;;19.27;100.00;97668.44;5078623;28;20510;-77
2023/08/26 02:41:08;;;;;;;6.53;2.90;;;18.40;99.90;;;19.20;100.00;97670.50;5076206;28;20555;-78
2023/08/26 02:43:37;;;;;;;6.50;2.87;;;18.50;99.90;;;19.19;100.00;97672.38;5072916;28;20495;-77
2023/08/26 02:46:06;;;;;;;7.87;2.60;;;18.40;99.90;;;19.14;100.00;97682.94;5077273;28;20486;-77
2023/08/26 02:48:37;;;;;;;4.87;2.47;;;18.40;99.90;;;19.13;100.00;97686.63;5075542;28;20480;-77
2023/08/26 02:51:06;;;;;;;7.70;2.47;;;18.40;99.90;;;19.09;100.00;97682.88;5078755;28;21236;-77
2023/08/26 02:53:37;;;;;;;8.73;3.60;;;18.30;99.90;;;18.98;100.00;97684.63;5077956;28;20506;-77
2023/08/26 02:56:09;;;;;;;3.67;2.30;;;18.30;99.90;;;18.83;100.00;97681.81;5078018;28;20475;-78
2023/08/26 02:58:39;;;;;;;4.33;2.57;;;18.20;99.90;;;18.78;100.00;97680.97;5076375;28;20470;-77
2023/08/26 03:01:10;;;;;;;3.10;2.13;;;18.10;99.90;;;18.72;100.00;97679.28;5078126;28;20457;-78
2023/08/26 03:03:40;;;;;;;5.03;2.50;;;18.00;99.90;;;18.66;100.00;97681.09;5076937;28;20471;-78
2023/08/26 03:06:09;;;;;;;4.43;2.50;;;18.00;99.90;;;18.70;100.00;97678.75;5071162;28;20460;-78
2023/08/26 03:08:38;;;;;;;10.47;2.80;;;17.90;99.90;;;18.74;100.00;97675.38;5071432;28;20464;-80
2023/08/26 03:11:09;;;;;;;4.53;2.77;;;17.90;99.90;;;18.72;100.00;97676.63;5074859;28;20460;-77
2023/08/26 03:13:39;;;;;;;6.70;2.20;;;17.80;99.90;;;18.60;100.00;97674.91;5073245;28;20487;-77
2023/08/26 03:16:10;;;;;;;12.83;2.70;;;17.80;99.90;;;18.54;100.00;97680.41;5073783;28;20470;-78
2023/08/26 03:18:40;;;;;;;3.47;2.40;;;17.70;99.90;;;18.54;100.00;97673.25;5074781;28;20482;-77
2023/08/26 03:21:10;;;;;;;32.70;14.87;;;17.70;99.90;;;18.51;100.00;97689.66;5074468;28;20472;-78
2023/08/26 03:23:42;;;;;;;3.00;2.40;;;17.70;99.90;;;18.42;100.00;97696.41;5070398;28;20977;-77
2023/08/26 03:26:14;;;;;;;8.73;2.80;;;17.70;99.90;;;18.39;100.00;97691.59;5072317;28;20460;-77
2023/08/26 03:28:47;;;;;;;3.47;2.37;;;17.70;99.90;;;18.32;100.00;97701.56;5076334;28;20483;-77
2023/08/26 03:31:16;;;;;;;4.47;2.10;;;17.60;99.90;;;18.30;100.00;97700.19;5075903;28;20948;-77
2023/08/26 03:33:44;;;;;;;4.97;2.03;;;17.50;99.90;;;18.31;100.00;97707.91;5076826;28;20492;-78
2023/08/26 03:36:14;;;;;;;12.93;2.00;;;17.50;99.90;;;18.27;100.00;97704.13;5072680;28;20985;-77
2023/08/26 03:38:44;;;;;;;2.90;1.80;;;17.50;99.90;;;18.22;100.00;97709.38;5074307;28;20456;-77
2023/08/26 03:41:16;;;;;;;7.63;2.67;;;17.50;99.90;;;18.23;100.00;97710.16;5076275;28;20489;-78
2023/08/26 03:43:44;;;;;;;11.23;2.57;;;17.30;99.90;;;18.16;100.00;97710.31;5075980;28;20498;-77
2023/08/26 03:46:14;;;;;;;2.90;1.83;;;17.40;99.90;;;18.09;100.00;97714.97;5076283;28;20464;-77
2023/08/26 03:48:43;;;;;;;4.93;2.90;;;17.20;99.90;;;18.06;100.00;97728.72;5069196;28;20946;-80
2023/08/26 03:51:13;;;;;;;3.33;1.77;;;17.20;99.90;;;18.00;100.00;97727.03;5072587;28;20463;-77
2023/08/26 03:53:43;;;;;;;4.73;2.30;;;17.20;99.90;;;17.97;100.00;97723.03;5078601;28;20509;-75
2023/08/26 03:56:14;;;;;;;15.37;2.60;;;17.10;99.90;;;17.89;100.00;97730.56;5076363;28;20471;-77
2023/08/26 03:58:44;;;;;;;4.43;2.33;;;17.20;99.90;;;17.88;100.00;97728.94;5075228;28;20452;-77
2023/08/26 04:01:14;;;;;;;3.10;1.47;;;17.00;99.90;;;17.87;100.00;97743.25;5076854;28;20502;-76
2023/08/26 04:03:44;;;;;;;11.50;1.80;;;17.00;99.90;;;17.82;100.00;97748.44;5075304;28;21016;-77
2023/08/26 04:06:15;;;;;;;4.23;1.87;;;16.90;99.90;;;17.77;100.00;97748.38;5074013;28;20460;-77
2023/08/26 04:08:46;;;;;;;3.30;2.20;;;16.90;99.90;;;17.72;100.00;97753.56;5074419;28;20890;-76
2023/08/26 04:11:19;;;;;;;2.47;1.57;;;16.90;99.90;;;17.72;100.00;97756.22;5075858;28;20986;-77
2023/08/26 04:13:50;;;;;;;3.03;1.90;;;16.80;99.90;;;17.58;100.00;97759.16;5074227;28;20498;-76
2023/08/26 04:16:21;;;;;;;8.13;1.80;;;16.80;99.90;;;17.52;100.00;97762.75;5073304;28;20475;-79
2023/08/26 04:18:51;;;;;;;6.03;1.60;;;16.70;99.90;;;17.52;100.00;97761.94;5071499;28;20461;-77
2023/08/26 04:21:24;;;;;;;4.73;1.60;;;16.70;99.90;;;17.38;100.00;97760.63;5073017;28;20460;-76
2023/08/26 04:23:55;;;;;;;5.90;1.70;;;16.70;99.90;;;17.31;100.00;97759.97;5075274;28;20460;-77
2023/08/26 04:26:28;;;;;;;2.80;1.57;;;16.60;99.90;;;17.23;100.00;97769.06;5076026;28;20470;-77
2023/08/26 04:28:59;;;;;;;2.67;1.67;;;16.50;99.90;;;17.18;100.00;97762.91;5072768;28;20985;-77
2023/08/26 04:31:29;;;;;;;3.57;1.80;;;16.50;99.90;;;17.17;100.00;97761.28;5075447;28;20893;-77
2023/08/26 04:33:58;;;;;;;4.80;1.67;;;16.30;99.90;;;17.14;100.00;97767.84;5069298;28;20488;-80
2023/08/26 04:36:29;;;;;;;8.43;2.10;;;16.40;99.90;;;17.03;100.00;97768.69;5072162;28;20475;-77
2023/08/26 04:38:57;;;;;;;8.27;3.10;;;16.30;99.90;;;17.05;100.00;97770.06;5070851;28;21293;-78
2023/08/26 04:41:29;;;;;;;2.20;1.90;;;16.20;99.90;;;16.95;100.00;97771.69;5074056;28;20915;-77
2023/08/26 04:43:59;;;;;;;2.27;1.83;;;16.20;99.90;;;16.96;100.00;97773.31;5072049;28;20575;-76
2023/08/26 04:46:31;;;;;;;2.50;1.60;;;16.10;99.90;;;16.90;100.00;97774.25;5075233;28;20565;-76
2023/08/26 04:49:02;;;;;;;5.87;2.17;;;16.00;99.90;;;16.82;100.00;97782.53;5077505;28;20471;-77
2023/08/26 04:51:32;;;;;;;2.53;1.67;;;15.80;99.90;;;16.77;100.00;97779.75;5075727;28;20468;-76
2023/08/26 04:54:01;;;;;;;4.80;1.90;;;15.90;99.90;;;16.66;100.00;97784.03;5077290;28;20487;-78
2023/08/26 04:56:34;;;;;;;6.73;1.83;;;15.60;99.90;;;16.70;100.00;97784.38;5077314;28;20464;-76
2023/08/26 04:59:05;;;;;;;8.80;2.07;;;15.70;99.90;;;16.61;100.00;97786.56;5077458;28;20467;-77
2023/08/26 05:01:35;;;;;;;4.83;1.80;;;15.70;99.90;;;16.52;100.00;97772.09;5073314;28;20503;-76
2023/08/26 05:04:07;;;;;;;2.93;1.60;;;15.80;99.90;;;16.53;100.00;97779.78;5075964;28;20466;-76
2023/08/26 05:06:37;;;;;;;6.20;1.80;;;15.70;99.90;;;16.48;100.00;97781.50;5074788;28;20551;-76
2023/08/26 05:09:07;;;;;;;4.07;1.57;;;15.40;99.90;;;16.44;100.00;97791.72;5075404;28;20949;-76
2023/08/26 05:11:39;;;;;;;3.23;1.50;;;15.60;99.90;;;16.48;100.00;97784.97;5075130;28;20466;-76
2023/08/26 05:14:11;;;;;;;3.73;1.50;;;15.50;99.90;;;16.51;100.00;97786.34;5075051;28;20483;-76
2023/08/26 05:16:40;;;;;;;1.90;1.40;;;15.50;99.90;;;16.53;100.00;97790.34;5073371;28;21090;-76
2023/08/26 05:19:10;;;;;;;7.63;2.07;;;15.50;99.90;;;16.51;100.00;97802.97;5075013;28;20561;-77
2023/08/26 05:21:40;;;;;;;4.73;1.70;;;15.40;99.90;;;16.51;100.00;97804.81;5076142;28;20475;-76
2023/08/26 05:24:10;;;;;;;5.20;1.80;;;15.50;99.90;;;16.52;100.00;97807.19;5079234;28;20993;-77
2023/08/26 05:26:43;;;;;;;6.83;1.70;;;15.40;99.90;;;16.52;100.00;97807.19;5080620;28;20453;-76
2023/08/26 05:29:13;;;;;;;2.60;1.80;;;15.50;99.90;;;16.50;100.00;97805.84;5081015;28;20954;-76
2023/08/26 05:31:45;;;;;;;7.17;2.20;;;15.50;99.90;;;16.50;100.00;97809.28;5080476;28;20961;-76
2023/08/26 05:34:18;;;;;;;3.13;1.90;;;15.40;99.90;;;16.49;100.00;97818.22;5079984;28;20505;-76
2023/08/26 05:36:47;;;;;;;5.17;2.20;;;15.40;99.90;;;16.45;100.00;97819.72;5082100;28;20534;-77
2023/08/26 05:39:18;;;;;;;3.97;1.63;;;15.50;99.90;;;16.43;100.00;97811.22;5079173;28;20468;-77
2023/08/26 05:41:49;;;;;;;4.90;1.73;;;15.30;99.90;;;16.46;100.00;97823.16;5080957;28;20457;-77
2023/08/26 05:44:19;;;;;;;4.23;1.73;;;15.40;99.90;;;16.46;100.00;97821.31;5078806;28;20715;-76
2023/08/26 05:46:50;;;;;;;8.37;1.90;;;15.50;99.90;;;16.44;100.00;97823.41;5078923;28;20455;-77
2023/08/26 05:49:22;;;;;;;3.20;1.60;;;15.40;99.90;;;16.40;100.00;97827.53;5080180;28;20509;-77
2023/08/26 05:51:51;;;;;;;3.40;1.77;;;15.50;99.90;;;16.43;100.00;97829.72;5078240;28;20456;-77
2023/08/26 05:54:23;;;;;;;4.90;1.73;;;15.50;99.90;;;16.48;100.00;97829.03;5080007;28;20577;-77
2023/08/26 05:56:54;;;;;;;4.17;1.50;;;15.50;99.90;;;16.49;100.00;97825.34;5080310;28;21107;-77
2023/08/26 05:59:24;;;;;;;5.47;1.23;;;15.50;99.90;;;16.49;100.00;97831.41;5078475;28;21070;-76
2023/08/26 06:01:55;;;;;;;3.93;1.80;;;15.50;99.90;;;16.51;100.00;97834.66;5077579;28;20525;-76
2023/08/26 06:04:24;;;;;;;6.33;1.70;;;15.50;99.90;;;16.39;100.00;97825.09;5078408;28;20482;-77
2023/08/26 06:06:54;;;;;;;2.90;1.23;;;15.50;99.90;;;16.32;100.00;97825.22;5077672;28;20539;-77
2023/08/26 06:09:23;;;;;;;3.60;1.83;;;15.40;99.90;;;16.32;100.00;97829.69;5080145;28;20457;-77
2023/08/26 06:11:55;;;;;;;4.30;1.40;;;15.40;99.90;;;16.30;100.00;97829.94;5082577;28;20463;-77
2023/08/26 06:14:26;;;;;;;6.63;2.00;;;15.40;99.90;;;16.30;100.00;97832.56;5082938;28;20616;-77
2023/08/26 06:16:55;;;;;;;2.90;1.97;;;15.40;99.90;;;16.28;100.00;97833.84;5078846;28;21679;-77
2023/08/26 06:19:24;;;;;;;3.43;1.57;;;15.50;99.90;;;16.32;100.00;97832.34;5079653;28;20462;-77
2023/08/26 06:21:54;;;;;;;14.33;1.40;;;15.50;99.90;;;16.34;100.00;97838.19;5078464;28;20905;-77
2023/08/26 06:24:25;;;;;;;2.10;1.23;;;15.40;99.90;;;16.34;100.00;97839.00;5080743;28;20460;-77
2023/08/26 06:26:58;;;;;;;2.17;1.70;;;15.50;99.90;;;16.31;100.00;97831.56;5077773;28;20475;-77
2023/08/26 06:29:29;;;;;;;10.70;1.90;;;15.60;99.90;;;16.37;100.00;97835.91;5079407;28;20456;-78
2023/08/26 06:31:57;;;;;;;2.47;1.60;;;15.60;99.90;;;16.43;100.00;97832.34;5077752;28;20498;-77
2023/08/26 06:34:27;;;;;;;3.90;1.43;;;15.70;99.90;;;16.44;100.00;97839.25;5077738;28;20490;-77
2023/08/26 06:36:59;;;;;;;1.67;1.37;;;15.60;99.90;;;16.45;100.00;97826.84;5078399;28;20467;-77
2023/08/26 06:39:30;;;;;;;3.30;1.20;;;15.60;99.90;;;16.48;100.00;97835.13;5078101;28;20547;-77
2023/08/26 06:42:02;;;;;;;1.93;1.57;;;15.70;99.90;;;16.48;100.00;97835.13;5078131;28;21104;-77
2023/08/26 06:44:31;;;;;;;2.17;1.30;;;15.60;99.90;;;16.50;100.00;97840.16;5075629;28;20889;-77
2023/08/26 06:47:01;;;;;;;1.57;1.37;;;15.60;99.90;;;16.50;100.00;97843.59;5077431;28;20460;-77
2023/08/26 06:49:31;;;;;;;3.23;1.50;;;15.60;99.90;;;16.49;100.00;97841.97;5078405;28;20460;-77
2023/08/26 06:52:01;;;;;;;2.70;1.47;;;15.50;99.90;;;16.48;100.00;97832.47;5078515;28;20987;-77
2023/08/26 06:54:31;;;;;;;4.90;1.63;;;15.70;99.90;;;16.54;100.00;97836.03;5079129;28;20488;-76
2023/08/26 06:57:02;;;;;;;2.97;1.50;;;15.60;99.90;;;16.55;100.00;97827.06;5078570;28;20913;-77
2023/08/26 06:59:32;;;;;;;4.30;1.50;;;15.70;99.90;;;16.60;100.00;97828.00;5077672;28;20465;-77
2023/08/26 07:02:02;;;;;;;4.40;1.20;;;15.80;99.90;;;16.62;100.00;97829.63;5078420;28;20468;-77
2023/08/26 07:04:33;;;;;;;3.93;1.63;;;15.80;99.90;;;16.65;100.00;97826.53;5076752;28;21127;-76
2023/08/26 07:07:04;;;;;;;4.00;1.47;;;15.80;99.90;;;16.70;100.00;97829.25;5078901;28;20564;-76
2023/08/26 07:09:34;;;;;;;2.03;1.60;;;15.90;99.90;;;16.69;100.00;97827.69;5076765;28;20509;-77
2023/08/26 07:12:06;;;;;;;1.57;1.13;;;15.90;99.90;;;16.71;100.00;97833.50;5077619;28;20964;-77
2023/08/26 07:14:37;;;;;;;8.53;1.50;;;15.90;99.90;;;16.75;100.00;97834.66;5037585;28;1171284;-77
2023/08/26 07:17:07;;;;;;;2.60;1.50;;;16.00;99.90;;;16.77;100.00;97832.59;5078075;28;20494;-78
2023/08/26 07:19:38;;;;;;;2.60;1.40;;;16.10;99.90;;;16.78;100.00;97834.19;5078580;28;20456;-79
2023/08/26 07:22:08;;;;;;;3.70;1.30;;;16.00;99.90;;;16.84;100.00;97831.44;5077214;28;20470;-77
2023/08/26 07:24:38;;;;;;;1.83;1.10;;;16.10;99.90;;;16.88;100.00;97831.78;5077759;28;20476;-76
2023/08/26 07:27:10;;;;;;;3.57;1.30;;;16.10;99.90;;;16.96;100.00;97820.84;5078329;28;20459;-77
2023/08/26 07:29:40;;;;;;;3.13;1.10;;;16.20;99.90;;;16.92;100.00;97820.50;5075934;28;20464;-77
2023/08/26 07:32:10;;;;;;;1.63;1.00;;;16.20;99.90;;;17.00;100.00;97822.00;5077400;28;20463;-78
2023/08/26 07:34:40;;;;;;;3.77;1.20;;;16.30;99.90;;;17.05;100.00;97824.72;5077004;28;20496;-77
2023/08/26 07:37:11;;;;;;;1.33;1.20;;;16.30;99.90;;;17.05;100.00;97830.00;5076905;28;20506;-76
2023/08/26 07:39:53;;;;;;;6.37;1.90;;;16.40;99.90;;;17.08;100.00;97830.34;5078116;28;20455;-77
2023/08/26 07:42:28;;;;;;;2.57;1.30;;;16.40;99.90;;;17.13;100.00;97832.31;5077370;28;20479;-77
2023/08/26 07:44:58;;;;;;;6.60;1.67;;;16.40;99.90;;;17.18;100.00;97828.97;5077037;28;20489;-77
2023/08/26 07:47:27;;;;;;;4.67;1.33;;;16.40;99.90;;;17.22;100.00;97830.06;5077045;28;20471;-77
2023/08/26 07:50:16;;;;;;;2.23;1.30;;;16.50;99.90;;;17.26;100.00;97832.03;5077401;28;21018;-77
2023/08/26 07:52:46;;;;;;;2.27;1.10;;;16.60;99.90;;;17.30;100.00;97830.53;5077486;28;20464;-77
2023/08/26 07:55:17;;;;;;;6.63;1.50;;;16.70;99.90;;;17.36;100.00;97840.16;5077589;28;21006;-77
2023/08/26 07:57:48;;;;;;;6.87;1.40;;;16.70;99.90;;;17.41;100.00;97834.97;5081094;28;20451;-77
2023/08/26 08:00:18;;;;;;;3.20;1.50;;;16.70;99.90;;;17.41;100.00;97829.69;5078560;28;20458;-76
2023/08/26 08:02:48;;;;;;;1.77;1.10;;;16.80;99.90;;;17.46;100.00;97828.97;5078669;28;20891;-76
2023/08/26 08:05:18;;;;;;;8.93;1.60;;;16.70;99.90;;;17.49;100.00;97829.28;5076931;28;21158;-77
2023/08/26 08:07:47;;;;;;;2.90;1.20;;;16.80;99.90;;;17.54;100.00;97826.75;5078286;28;20467;-77
2023/08/26 08:10:17;;;;;;;6.13;1.60;;;16.90;99.90;;;17.55;100.00;97823.09;5077819;28;20463;-78
2023/08/26 08:12:48;;;;;;;9.03;1.50;;;16.90;99.90;;;17.63;100.00;97826.41;5077150;28;20553;-77
2023/08/26 08:15:17;;;;;;;1.63;1.43;;;16.90;99.90;;;17.67;100.00;97822.25;5077099;28;20486;-77
2023/08/26 08:17:46;;;;;;;2.93;1.37;;;17.00;99.90;;;17.73;100.00;97818.66;5076688;28;20952;-77
2023/08/26 08:20:16;;;;;;;8.17;1.63;;;17.00;99.90;;;17.72;100.00;97814.41;5080745;28;20451;-77
2023/08/26 08:22:45;;;;;;;2.90;1.30;;;17.10;99.90;;;17.73;100.00;97811.53;5077518;28;20485;-77
2023/08/26 08:25:15;;;;;;;2.03;1.37;;;17.10;99.90;;;17.75;100.00;97798.06;5079997;28;21031;-77
2023/08/26 08:27:46;;;;;;;2.70;1.40;;;17.10;99.90;;;17.82;100.00;97809.28;5076903;28;20471;-77
2023/08/26 08:30:16;;;;;;;2.07;1.30;;;17.10;99.90;;;17.88;100.00;97806.47;5077667;28;20539;-77
2023/08/26 08:32:46;;;;;;;3.67;1.00;;;17.20;99.90;;;17.94;100.00;97797.59;5077986;28;20452;-77
2023/08/26 08:35:16;;;;;;;4.40;1.70;;;17.20;99.90;;;17.97;100.00;97796.31;5079179;28;20487;-77
2023/08/26 08:37:46;;;;;;;1.73;1.20;;;17.20;99.90;;;18.00;100.00;97795.84;5076605;28;20463;-77
2023/08/26 08:40:18;;;;;;;8.40;1.30;;;17.40;99.90;;;18.05;100.00;97801.19;5077720;28;20470;-77
2023/08/26 08:42:50;;;;;;;4.53;1.07;;;17.40;99.90;;;18.14;100.00;97797.13;5079134;28;20484;-77
2023/08/26 08:45:22;;;;;;;3.00;1.33;;;17.40;99.90;;;18.18;100.00;97798.25;5074373;28;20828;-77
2023/08/26 08:47:56;;;;;;;3.27;1.37;;;17.50;99.90;;;18.21;100.00;97811.00;5077618;28;20464;-77
2023/08/26 08:50:26;;;;;;;1.83;1.00;;;17.50;99.90;;;18.25;100.00;97798.88;5076623;28;20466;-78
2023/08/26 08:52:59;;;;;;;2.07;1.37;;;17.60;99.90;;;18.28;100.00;97806.34;5077039;28;20463;-77
2023/08/26 08:55:30;;;;;;;2.87;1.10;;;17.60;99.90;;;18.32;100.00;97804.81;5076912;28;20479;-78
2023/08/26 08:58:03;;;;;;;3.13;1.40;;;17.60;99.90;;;18.34;100.00;97805.38;5076898;28;20452;-77
2023/08/26 09:00:32;;;;;;;1.90;1.20;;;17.60;99.90;;;18.38;100.00;97809.13;5077028;28;20515;-77
2023/08/26 09:03:09;;;;;;;2.37;1.50;;;17.60;99.90;;;18.38;100.00;97814.44;5076021;28;20468;-77
2023/08/26 09:05:40;;;;;;;3.83;1.50;;;17.70;99.90;;;18.44;100.00;97805.50;5076263;28;20472;-77
2023/08/26 09:08:12;;;;;;;5.40;1.43;;;17.80;99.90;;;18.50;100.00;97807.22;5077645;28;20460;-77
2023/08/26 09:10:42;;;;;;;1.97;1.43;;;17.80;99.90;;;18.53;100.00;97809.38;5076717;28;20467;-77
2023/08/26 09:13:14;;;;;;;5.27;1.60;;;17.80;99.90;;;18.54;100.00;97803.03;5078293;28;20461;-77
2023/08/26 09:15:44;;;;;;;1.50;1.00;;;17.90;99.90;;;18.60;100.00;97817.94;5076614;28;20511;-77
2023/08/26 09:18:15;;;;;;;1.37;1.20;;;18.00;99.90;;;18.64;100.00;97806.88;5075304;28;20471;-77
2023/08/26 09:20:48;;;;;;;3.60;1.33;;;18.00;99.90;;;18.68;100.00;97808.78;5077192;28;20521;-77
2023/08/26 09:23:18;;;;;;;4.27;1.53;;;18.00;99.90;;;18.71;100.00;97803.00;5077582;28;20463;-77
2023/08/26 09:25:56;;;;;;;2.13;1.20;;;18.10;99.90;;;18.75;100.00;97805.97;5076472;28;20495;-77
2023/08/26 09:28:29;;;;;;;5.33;1.30;;;18.10;99.90;;;18.79;100.00;97815.84;5076074;28;21028;-77
2023/08/26 09:31:07;;;;;;;3.50;1.30;;;18.10;99.90;;;18.83;100.00;97806.34;5076605;28;20456;-77
2023/08/26 09:33:38;;;;;;;1.90;1.23;;;18.20;99.90;;;18.91;100.00;97811.22;5076735;28;20555;-77
2023/08/26 09:36:09;;;;;;;3.53;1.47;;;18.20;99.90;;;18.99;100.00;97807.34;5078915;28;20480;-77
2023/08/26 09:38:49;;;;;;;2.60;1.20;;;18.30;99.90;;;19.08;100.00;97803.22;5077033;28;20950;-78
2023/08/26 09:41:22;;;;;;;3.17;1.40;;;18.40;99.90;;;19.11;100.00;97808.03;5078700;28;20466;-77
2023/08/26 09:43:53;;;;;;;2.80;1.20;;;18.60;99.90;;;19.13;100.00;97803.25;5075304;28;20567;-77
2023/08/26 09:46:23;;;;;;;1.80;1.23;;;18.50;99.90;;;19.11;100.00;97800.06;5074048;28;20464;-77
2023/08/26 09:48:58;;;;;;;2.00;1.30;;;18.60;99.90;;;19.20;100.00;97801.22;5076107;28;20475;-77
2023/08/26 09:51:30;;;;;;;1.93;1.10;;;18.60;99.90;;;19.29;100.00;97788.34;5075266;28;20485;-77
2023/08/26 09:54:00;;;;;;;2.60;1.20;;;18.70;99.90;;;19.36;100.00;97789.75;5074896;28;20634;-78
2023/08/26 09:56:30;;;;;;;1.63;0.93;;;18.80;99.90;;;19.41;98.69;97789.81;5076677;28;20491;-77
2023/08/26 09:59:01;;;;;;;3.73;1.50;;;18.70;99.90;;;19.42;95.58;97788.78;5074383;28;20460;-76
2023/08/26 10:01:30;;;;;;;2.67;1.47;;;18.70;99.90;;;19.47;95.98;97788.81;5072360;28;20478;-79
2023/08/26 10:04:08;;;;;;;9.30;1.40;;;18.90;99.90;;;19.54;96.98;97778.81;5075656;28;20491;-77
2023/08/26 10:06:42;;;;;;;3.90;1.30;;;18.90;99.90;;;19.52;91.56;97785.44;5077891;28;20491;-77
2023/08/26 10:09:26;;;;;;;3.10;1.50;;;19.00;99.90;;;19.56;91.18;97782.03;5077522;28;20903;-77
2023/08/26 10:12:05;;;;;;;6.30;1.50;;;19.00;99.90;;;19.68;92.21;97783.72;5080959;28;21036;-77
2023/08/26 10:14:42;;;;;;;2.03;1.27;;;19.10;99.90;;;19.75;93.50;97781.69;5082537;28;20474;-80
2023/08/26 10:17:15;;;;;;;2.37;1.43;;;19.10;99.90;;;19.80;95.04;97785.16;5080068;28;20866;-77
2023/08/26 10:19:46;;;;;;;2.50;1.40;;;19.20;99.90;;;19.82;92.83;97795.53;5079222;28;20482;-78
2023/08/26 10:22:16;;;;;;;1.30;1.10;;;19.20;99.90;;;19.87;92.69;97790.25;5079442;28;20467;-77
2023/08/26 10:24:47;;;;;;;1.73;1.07;;;19.30;99.90;;;19.92;92.87;97787.66;5080156;28;20469;-77
2023/08/26 10:27:18;;;;;;;2.80;1.30;;;19.40;99.90;;;19.97;93.14;97785.03;5081916;28;20460;-77
2023/08/26 10:29:49;;;;;;;3.20;1.30;;;19.50;99.90;;;20.03;92.66;97786.66;5081871;28;20529;-76